createdAt,value
2017-11-23T00:01:06.694Z,1.80
2017-11-23T00:03:40.272Z,1.43
2017-11-23T00:06:12.979Z,1.60
2017-11-23T00:08:45.653Z,1.23
2017-11-23T00:11:18.242Z,1.40
2017-11-23T00:13:50.715Z,1.20
2017-11-23T00:16:23.203Z,1.37
2017-11-23T00:18:55.772Z,1.30
2017-11-23T00:21:28.249Z,1.40
2017-11-23T00:24:00.791Z,1.23
2017-11-23T00:26:34.026Z,1.40
2017-11-23T00:29:06.598Z,1.33
2017-11-23T00:31:39.693Z,1.40
2017-11-23T00:34:13.033Z,1.50
2017-11-23T00:36:46.149Z,1.33
2017-11-23T00:39:18.626Z,1.37
2017-11-23T00:41:51.368Z,1.00
2017-11-23T00:44:24.667Z,1.13
2017-11-23T00:46:57.337Z,1.03
2017-11-23T00:49:29.984Z,1.30
2017-11-23T00:52:02.714Z,1.30
2017-11-23T00:54:35.247Z,1.30
2017-11-23T00:57:07.806Z,1.00
2017-11-23T00:59:40.324Z,1.03
2017-11-23T01:02:12.890Z,1.30
2017-11-23T01:04:45.480Z,1.07
2017-11-23T01:07:17.879Z,1.33
2017-11-23T01:09:50.431Z,1.17
2017-11-23T01:12:22.945Z,0.97
2017-11-23T01:14:55.477Z,0.90
2017-11-23T01:17:28.169Z,0.93
2017-11-23T01:20:00.612Z,1.40
2017-11-23T01:22:35.886Z,1.40
2017-11-23T01:25:08.460Z,1.63
2017-11-23T01:27:41.038Z,1.50
2017-11-23T01:30:13.742Z,1.50
2017-11-23T01:32:47.177Z,1.53
2017-11-23T01:35:19.711Z,1.53
2017-11-23T01:37:52.287Z,1.30
2017-11-23T01:40:24.896Z,1.10
2017-11-23T01:42:57.465Z,1.13
2017-11-23T01:45:29.880Z,1.30
2017-11-23T01:48:02.410Z,1.17
2017-11-23T01:50:35.018Z,1.13
2017-11-23T01:53:07.582Z,1.00
2017-11-23T01:55:41.361Z,1.50
2017-11-23T01:58:14.030Z,1.10
2017-11-23T02:00:47.344Z,1.40
2017-11-23T02:03:19.855Z,1.20
2017-11-23T02:05:53.138Z,1.00
2017-11-23T02:08:26.445Z,1.20
2017-11-23T02:10:59.876Z,1.10
2017-11-23T02:13:32.638Z,1.30
2017-11-23T02:16:05.313Z,1.23
2017-11-23T02:18:37.824Z,1.47
2017-11-23T02:21:10.511Z,1.30
2017-11-23T02:23:43.024Z,1.20
2017-11-23T02:26:16.362Z,1.23
2017-11-23T02:28:49.622Z,1.53
2017-11-23T02:31:22.627Z,1.40
2017-11-23T02:33:55.918Z,1.57
2017-11-23T02:36:28.599Z,1.43
2017-11-23T02:39:01.133Z,1.00
2017-11-23T02:41:34.468Z,1.53
2017-11-23T02:44:07.148Z,1.43
2017-11-23T02:46:39.577Z,1.30
2017-11-23T02:49:12.746Z,1.30
2017-11-23T02:51:45.523Z,1.50
2017-11-23T02:54:18.812Z,1.20
2017-11-23T02:56:52.215Z,1.80
2017-11-23T02:59:25.580Z,1.53
2017-11-23T03:01:58.317Z,1.27
2017-11-23T03:04:30.837Z,1.30
2017-11-23T03:07:04.059Z,1.60
2017-11-23T03:09:36.980Z,1.63
2017-11-23T03:12:09.496Z,1.43
2017-11-23T03:14:42.015Z,1.67
2017-11-23T03:17:15.234Z,1.40
2017-11-23T03:19:47.995Z,1.33
2017-11-23T03:22:20.484Z,1.30
2017-11-23T03:24:53.035Z,1.70
2017-11-23T03:27:26.990Z,1.13
2017-11-23T03:30:00.027Z,1.20
2017-11-23T03:32:33.388Z,1.60
2017-11-23T03:35:06.732Z,1.70
2017-11-23T03:37:39.269Z,1.30
2017-11-23T03:40:11.853Z,1.60
2017-11-23T03:42:44.416Z,1.20
2017-11-23T03:45:18.037Z,1.83
2017-11-23T03:47:50.774Z,1.57
2017-11-23T03:50:23.479Z,1.53
2017-11-23T03:52:56.690Z,1.27
2017-11-23T03:55:29.559Z,1.30
2017-11-23T03:58:02.793Z,1.60
2017-11-23T04:00:36.628Z,1.57
2017-11-23T04:03:09.394Z,1.70
2017-11-23T04:05:42.793Z,1.60
2017-11-23T04:08:15.568Z,1.37
2017-11-23T04:10:49.186Z,1.40
2017-11-23T04:13:21.921Z,1.50
2017-11-23T04:15:54.582Z,1.50
2017-11-23T04:18:27.814Z,2.17
2017-11-23T04:21:01.518Z,1.43
2017-11-23T04:23:34.201Z,1.40
2017-11-23T04:26:06.799Z,1.67
2017-11-23T04:28:40.259Z,1.57
2017-11-23T04:31:13.590Z,1.40
2017-11-23T04:33:46.988Z,1.60
2017-11-23T04:36:19.607Z,1.33
2017-11-23T04:38:52.036Z,1.87
2017-11-23T04:41:24.542Z,1.53
2017-11-23T04:43:57.099Z,1.70
2017-11-23T04:46:29.686Z,1.70
2017-11-23T04:49:09.021Z,1.20
2017-11-23T04:51:41.684Z,2.90
2017-11-23T04:54:15.715Z,1.80
2017-11-23T04:56:48.655Z,1.50
2017-11-23T04:59:21.309Z,1.63
2017-11-23T05:01:54.115Z,1.73
2017-11-23T05:04:26.707Z,1.60
2017-11-23T05:06:59.940Z,1.60
2017-11-23T05:09:32.412Z,1.70
2017-11-23T05:12:05.797Z,1.60
2017-11-23T05:14:39.148Z,1.60
2017-11-23T05:17:11.814Z,1.73
2017-11-23T05:19:44.264Z,1.67
2017-11-23T05:22:16.714Z,1.50
2017-11-23T05:24:49.293Z,1.67
2017-11-23T05:27:21.971Z,2.03
2017-11-23T05:29:54.486Z,2.10
2017-11-23T05:32:26.820Z,1.90
2017-11-23T05:34:59.568Z,1.80
2017-11-23T05:37:32.161Z,1.60
2017-11-23T05:40:04.755Z,1.60
2017-11-23T05:42:38.032Z,1.70
2017-11-23T05:45:11.156Z,1.60
2017-11-23T05:47:43.640Z,1.43
2017-11-23T05:50:17.039Z,1.50
2017-11-23T05:52:49.797Z,1.70
2017-11-23T05:55:22.223Z,1.87
2017-11-23T05:57:54.666Z,1.73
2017-11-23T06:00:27.175Z,2.30
2017-11-23T06:02:59.688Z,1.53
2017-11-23T06:05:32.348Z,1.77
2017-11-23T06:08:05.663Z,1.77
2017-11-23T06:10:38.216Z,1.60
2017-11-23T06:13:10.728Z,1.60
2017-11-23T06:15:43.383Z,1.73
2017-11-23T06:18:16.184Z,1.70
2017-11-23T06:20:48.786Z,1.60
2017-11-23T06:23:22.202Z,1.40
2017-11-23T06:25:55.144Z,1.90
2017-11-23T06:28:27.666Z,1.83
2017-11-23T06:31:01.060Z,1.73
2017-11-23T06:33:33.558Z,1.83
2017-11-23T06:36:06.296Z,2.20
2017-11-23T06:38:38.749Z,1.80
2017-11-23T06:41:11.446Z,1.90
2017-11-23T06:43:43.845Z,2.30
2017-11-23T06:46:17.070Z,1.67
2017-11-23T06:48:50.063Z,2.17
2017-11-23T06:51:22.667Z,2.10
2017-11-23T06:53:55.972Z,2.43
2017-11-23T06:56:28.722Z,1.77
2017-11-23T06:59:01.271Z,1.80
2017-11-23T07:01:35.312Z,2.23
2017-11-23T07:04:07.936Z,1.57
2017-11-23T07:06:40.592Z,1.77
2017-11-23T07:09:13.246Z,2.57
2017-11-23T07:11:45.867Z,2.47
2017-11-23T07:14:19.199Z,2.37
2017-11-23T07:16:52.024Z,2.23
2017-11-23T07:19:25.419Z,2.03
2017-11-23T07:21:58.007Z,2.40
2017-11-23T07:24:30.475Z,2.53
2017-11-23T07:27:03.190Z,1.93
2017-11-23T07:29:35.649Z,3.30
2017-11-23T07:32:08.913Z,2.67
2017-11-23T07:34:41.624Z,2.77
2017-11-23T07:37:15.693Z,2.50
2017-11-23T07:39:48.867Z,1.80
2017-11-23T07:42:21.692Z,1.80
2017-11-23T07:44:54.216Z,2.67
2017-11-23T07:47:26.776Z,1.70
2017-11-23T07:50:00.848Z,2.40
2017-11-23T07:52:34.529Z,2.43
2017-11-23T07:55:07.165Z,2.23
2017-11-23T07:57:39.709Z,1.70
2017-11-23T08:00:13.867Z,1.70
2017-11-23T08:02:46.643Z,1.90
2017-11-23T08:05:20.828Z,1.80
2017-11-23T08:07:53.244Z,1.80
2017-11-23T08:10:26.545Z,1.90
2017-11-23T08:12:58.887Z,1.73
2017-11-23T08:15:32.214Z,1.37
2017-11-23T08:18:05.623Z,1.30
2017-11-23T08:20:39.846Z,1.60
2017-11-23T08:23:13.021Z,1.60
2017-11-23T08:25:53.288Z,1.50
2017-11-23T08:28:25.735Z,1.40
2017-11-23T08:31:00.460Z,1.30
2017-11-23T08:33:33.700Z,2.47
2017-11-23T08:36:06.362Z,1.50
2017-11-23T08:38:38.721Z,1.50
2017-11-23T08:41:11.499Z,1.70
2017-11-23T08:43:44.960Z,1.83
2017-11-23T08:46:17.508Z,1.53
2017-11-23T08:48:50.145Z,1.70
2017-11-23T08:51:22.622Z,1.50
2017-11-23T08:53:56.117Z,1.30
2017-11-23T08:56:29.518Z,1.40
2017-11-23T08:59:02.388Z,1.57
2017-11-23T09:01:37.716Z,1.83
2017-11-23T09:04:10.450Z,1.70
2017-11-23T09:06:43.435Z,1.70
2017-11-23T09:09:16.916Z,1.50
2017-11-23T09:11:50.177Z,1.60
2017-11-23T09:14:23.052Z,1.90
2017-11-23T09:16:55.508Z,1.90
2017-11-23T09:19:28.944Z,1.80
2017-11-23T09:22:01.531Z,1.77
2017-11-23T09:24:34.841Z,1.87
2017-11-23T09:27:07.662Z,1.67
2017-11-23T09:29:40.418Z,1.80
2017-11-23T09:32:14.812Z,1.80
2017-11-23T09:34:48.640Z,1.60
2017-11-23T09:37:21.374Z,1.70
2017-11-23T09:39:53.969Z,1.60
2017-11-23T09:42:27.230Z,2.30
2017-11-23T09:45:00.019Z,1.93
2017-11-23T09:47:32.689Z,2.17
2017-11-23T09:50:06.128Z,2.13
2017-11-23T09:52:39.266Z,1.60
2017-11-23T09:55:11.775Z,2.13
2017-11-23T09:57:45.083Z,1.77
2017-11-23T10:00:18.041Z,1.40
2017-11-23T10:02:50.550Z,1.20
2017-11-23T10:05:23.290Z,1.30
2017-11-23T10:07:57.124Z,1.20
2017-11-23T10:10:29.806Z,1.60
2017-11-23T10:13:09.292Z,1.70
2017-11-23T10:15:42.897Z,1.77
2017-11-23T10:18:15.695Z,1.50
2017-11-23T10:20:48.286Z,1.70
2017-11-23T10:23:21.548Z,1.47
2017-11-23T10:25:54.953Z,1.20
2017-11-23T10:28:28.442Z,1.40
2017-11-23T10:31:02.027Z,1.27
2017-11-23T10:33:34.679Z,1.20
2017-11-23T10:36:08.024Z,1.53
2017-11-23T10:38:40.845Z,1.30
2017-11-23T10:41:14.168Z,1.57
2017-11-23T10:43:48.800Z,2.33
2017-11-23T10:46:22.135Z,1.73
2017-11-23T10:48:56.200Z,1.83
2017-11-23T10:51:29.120Z,1.83
2017-11-23T10:54:02.570Z,1.33
2017-11-23T10:56:35.097Z,1.23
2017-11-23T10:59:07.951Z,1.50
2017-11-23T11:01:41.307Z,1.30
2017-11-23T11:04:13.958Z,1.50
2017-11-23T11:06:46.461Z,1.50
2017-11-23T11:09:19.878Z,1.90
2017-11-23T11:11:52.315Z,1.60
2017-11-23T11:14:24.739Z,1.50
2017-11-23T11:16:58.039Z,1.30
2017-11-23T11:19:31.176Z,1.80
2017-11-23T11:22:04.025Z,2.30
2017-11-23T11:24:36.715Z,3.07
2017-11-23T11:27:09.981Z,2.93
2017-11-23T11:29:42.456Z,1.83
2017-11-23T11:32:15.165Z,1.57
2017-11-23T11:34:48.551Z,1.20
2017-11-23T11:37:21.028Z,1.30
2017-11-23T11:39:54.457Z,1.30
2017-11-23T11:42:28.564Z,1.23
2017-11-23T11:45:01.268Z,2.00
2017-11-23T11:47:34.709Z,1.30
2017-11-23T11:50:07.223Z,1.30
2017-11-23T11:52:39.870Z,1.50
2017-11-23T11:55:12.358Z,1.60
2017-11-23T11:57:45.726Z,1.40
2017-11-23T12:00:18.160Z,1.40
2017-11-23T12:02:50.726Z,1.67
2017-11-23T12:05:23.328Z,1.57
2017-11-23T12:07:55.950Z,1.70
2017-11-23T12:10:28.310Z,1.77
2017-11-23T12:13:01.558Z,1.23
2017-11-23T12:15:35.534Z,1.43
2017-11-23T12:18:26.716Z,1.10
2017-11-23T12:21:11.428Z,1.43
2017-11-23T12:23:44.738Z,1.70
2017-11-23T12:26:17.444Z,1.37
2017-11-23T12:32:02.769Z,1.67
2017-11-23T12:34:36.142Z,1.50
2017-11-23T12:37:09.417Z,1.43
2017-11-23T12:39:42.402Z,2.30
2017-11-23T12:42:14.994Z,1.63
2017-11-23T12:44:48.372Z,1.20
2017-11-23T12:47:20.996Z,1.87
2017-11-23T12:49:54.535Z,1.10
2017-11-23T12:52:27.956Z,1.40
2017-11-23T12:55:00.712Z,1.73
2017-11-23T12:57:34.050Z,1.20
2017-11-23T13:00:07.623Z,2.00
2017-11-23T13:02:40.034Z,1.50
2017-11-23T13:05:12.465Z,1.90
2017-11-23T13:07:45.004Z,1.33
2017-11-23T13:10:18.060Z,1.37
2017-11-23T13:12:52.067Z,1.80
2017-11-23T13:15:25.141Z,1.90
2017-11-23T13:17:58.248Z,1.37
2017-11-23T13:20:31.472Z,1.10
2017-11-23T13:23:04.604Z,1.20
2017-11-23T13:25:37.772Z,1.13
2017-11-23T13:28:11.964Z,1.20
2017-11-23T13:30:45.368Z,2.20
2017-11-23T13:33:19.312Z,1.37
2017-11-23T13:35:53.389Z,1.90
2017-11-23T13:38:25.921Z,1.33
2017-11-23T13:40:59.193Z,1.13
2017-11-23T13:43:32.239Z,1.40
2017-11-23T13:46:04.773Z,1.77
2017-11-23T13:48:38.058Z,1.63
2017-11-23T13:51:10.918Z,1.20
2017-11-23T13:53:43.529Z,1.57
2017-11-23T13:56:16.674Z,1.40
2017-11-23T13:58:49.204Z,1.50
2017-11-23T14:01:21.811Z,2.20
2017-11-23T14:03:54.702Z,1.90
2017-11-23T14:06:28.690Z,1.73
2017-11-23T14:09:01.373Z,1.40
2017-11-23T14:11:34.668Z,1.60
2017-11-23T14:14:07.519Z,1.60
2017-11-23T14:16:39.870Z,1.70
2017-11-23T14:19:13.225Z,1.83
2017-11-23T14:21:46.385Z,1.60
2017-11-23T14:24:19.148Z,1.93
2017-11-23T14:26:51.654Z,2.53
2017-11-23T14:29:24.133Z,2.07
2017-11-23T14:31:58.170Z,2.00
2017-11-23T14:34:31.538Z,1.70
2017-11-23T14:37:04.657Z,1.47
2017-11-23T14:39:38.028Z,1.37
2017-11-23T14:42:10.594Z,1.37
2017-11-23T14:44:43.506Z,1.57
2017-11-23T14:47:16.201Z,1.40
2017-11-23T14:49:48.792Z,1.50
2017-11-23T14:52:22.666Z,1.80
2017-11-23T14:54:55.809Z,1.60
2017-11-23T14:57:29.147Z,1.80
2017-11-23T15:00:01.864Z,1.70
2017-11-23T15:02:34.419Z,1.87
2017-11-23T15:05:07.006Z,1.90
2017-11-23T15:07:40.317Z,2.20
2017-11-23T15:10:13.234Z,1.63
2017-11-23T15:12:45.841Z,2.20
2017-11-23T15:15:18.424Z,1.77
2017-11-23T15:17:50.897Z,1.77
2017-11-23T15:20:24.047Z,2.03
2017-11-23T15:22:56.793Z,2.20
2017-11-23T15:25:29.285Z,1.40
2017-11-23T15:28:02.668Z,1.40
2017-11-23T15:30:36.004Z,1.60
2017-11-23T15:33:09.606Z,1.80
2017-11-23T15:35:42.756Z,1.97
2017-11-23T15:38:16.082Z,1.83
2017-11-23T15:40:49.667Z,1.70
2017-11-23T15:43:22.410Z,1.80
2017-11-23T15:45:55.005Z,2.83
2017-11-23T15:48:27.817Z,2.23
2017-11-23T15:51:00.822Z,2.00
2017-11-23T15:53:33.589Z,3.80
2017-11-23T15:56:06.317Z,2.03
2017-11-23T15:58:39.576Z,2.00
2017-11-23T16:01:12.064Z,2.30
2017-11-23T16:03:44.568Z,2.03
2017-11-23T16:06:17.322Z,2.07
2017-11-23T16:08:49.860Z,2.23
2017-11-23T16:11:22.330Z,2.10
2017-11-23T16:14:02.633Z,2.20
2017-11-23T16:16:35.310Z,1.90
2017-11-23T16:19:07.948Z,2.40
2017-11-23T16:21:41.238Z,2.33
2017-11-23T16:24:13.879Z,2.60
2017-11-23T16:26:46.337Z,2.00
2017-11-23T16:29:18.856Z,2.00
2017-11-23T16:31:51.354Z,2.17
2017-11-23T16:34:23.832Z,3.27
2017-11-23T16:36:57.216Z,2.30
2017-11-23T16:39:31.699Z,1.80
2017-11-23T16:45:15.518Z,2.10
2017-11-23T16:47:54.362Z,2.30
2017-11-23T16:50:33.079Z,1.60
2017-11-23T16:53:09.182Z,1.87
2017-11-23T16:55:47.678Z,2.03
2017-11-23T16:58:26.457Z,2.07
2017-11-23T17:01:05.931Z,2.17
2017-11-23T17:03:48.973Z,2.07
2017-11-23T17:06:28.062Z,2.07
2017-11-23T17:09:03.292Z,1.60
2017-11-23T17:11:41.929Z,2.10
2017-11-23T17:14:16.564Z,2.00
2017-11-23T17:16:57.870Z,1.97
2017-11-23T17:19:31.036Z,2.27
2017-11-23T17:22:04.431Z,2.37
2017-11-23T17:24:37.379Z,1.90
2017-11-23T17:27:10.663Z,2.20
2017-11-23T17:29:44.875Z,1.80
2017-11-23T17:32:18.216Z,2.10
2017-11-23T17:34:50.963Z,2.17
2017-11-23T17:37:23.355Z,1.60
2017-11-23T17:39:55.803Z,1.97
2017-11-23T17:42:29.190Z,2.20
2017-11-23T17:45:01.623Z,2.17
2017-11-23T17:47:34.046Z,2.57
2017-11-23T17:50:06.631Z,2.50
2017-11-23T17:52:39.859Z,3.83
2017-11-23T17:55:13.271Z,3.53
2017-11-23T17:57:46.588Z,3.60
2017-11-23T18:00:19.192Z,3.50
2017-11-23T18:02:51.642Z,3.10
2017-11-23T18:05:25.082Z,2.60
2017-11-23T18:07:57.571Z,3.27
2017-11-23T18:10:30.810Z,2.90
2017-11-23T18:13:03.627Z,3.33
2017-11-23T18:15:36.086Z,3.50
2017-11-23T18:18:09.348Z,3.40
2017-11-23T18:20:42.933Z,3.30
2017-11-23T18:23:16.168Z,3.70
2017-11-23T18:25:48.590Z,3.40
2017-11-23T18:28:21.871Z,2.90
2017-11-23T18:30:54.277Z,3.63
2017-11-23T18:33:26.677Z,3.40
2017-11-23T18:35:59.249Z,3.40
2017-11-23T18:38:32.553Z,3.80
2017-11-23T18:41:06.013Z,2.87
2017-11-23T18:43:39.267Z,4.00
2017-11-23T18:46:11.783Z,3.43
2017-11-23T18:48:44.153Z,3.43
2017-11-23T18:51:16.687Z,3.67
2017-11-23T18:53:49.849Z,3.30
2017-11-23T18:56:22.754Z,3.37
2017-11-23T18:58:56.162Z,3.60
2017-11-23T19:01:28.709Z,3.27
2017-11-23T19:04:02.073Z,5.60
2017-11-23T19:06:35.400Z,4.60
2017-11-23T19:09:08.819Z,6.50
2017-11-23T19:11:41.310Z,9.23
2017-11-23T19:14:14.720Z,9.20
2017-11-23T19:16:48.111Z,10.50
2017-11-23T19:19:20.515Z,11.40
2017-11-23T19:21:52.942Z,11.73
2017-11-23T19:24:27.001Z,11.27
2017-11-23T19:26:59.736Z,12.00
2017-11-23T19:29:33.786Z,11.13
2017-11-23T19:32:06.592Z,11.00
2017-11-23T19:34:39.121Z,12.63
2017-11-23T19:37:11.630Z,11.37
2017-11-23T19:39:45.737Z,11.43
2017-11-23T19:42:18.437Z,10.80
2017-11-23T19:44:52.500Z,8.67
2017-11-23T19:47:25.948Z,8.20
2017-11-23T19:49:58.674Z,7.13
2017-11-23T19:52:32.046Z,6.57
2017-11-23T19:55:05.466Z,5.57
2017-11-23T19:57:37.965Z,6.73
2017-11-23T20:00:11.335Z,5.27
2017-11-23T20:02:44.822Z,4.60
2017-11-23T20:05:19.930Z,4.93
2017-11-23T20:07:52.522Z,4.87
2017-11-23T20:10:25.815Z,5.20
2017-11-23T20:12:58.399Z,5.20
2017-11-23T20:15:32.724Z,5.90
2017-11-23T20:18:06.039Z,4.80
2017-11-23T20:20:38.556Z,4.40
2017-11-23T20:23:11.773Z,3.77
2017-11-23T20:25:45.048Z,3.60
2017-11-23T20:28:19.103Z,4.33
2017-11-23T20:30:51.762Z,2.60
2017-11-23T20:33:25.792Z,3.50
2017-11-23T20:36:00.162Z,2.80
2017-11-23T20:38:33.612Z,2.80
2017-11-23T20:41:07.163Z,3.67
2017-11-23T20:43:39.743Z,3.13
2017-11-23T20:46:13.212Z,2.33
2017-11-23T20:48:46.649Z,3.33
2017-11-23T20:51:19.279Z,2.70
2017-11-23T20:53:53.248Z,2.47
2017-11-23T20:56:26.628Z,2.70
2017-11-23T20:58:59.926Z,3.03
2017-11-23T21:01:32.433Z,2.57
2017-11-23T21:04:05.085Z,2.73
2017-11-23T21:06:38.367Z,3.00
2017-11-23T21:09:11.795Z,3.60
2017-11-23T21:11:45.117Z,3.03
2017-11-23T21:14:18.504Z,2.30
2017-11-23T21:16:51.753Z,3.00
2017-11-23T21:19:24.375Z,3.13
2017-11-23T21:21:58.554Z,2.63
2017-11-23T21:24:31.325Z,2.80
2017-11-23T21:27:04.721Z,3.10
2017-11-23T21:29:37.124Z,2.53
2017-11-23T21:32:11.182Z,2.43
2017-11-23T21:34:43.902Z,2.37
2017-11-23T21:37:18.012Z,2.33
2017-11-23T21:39:50.746Z,4.50
2017-11-23T21:42:24.280Z,3.87
2017-11-23T21:44:57.492Z,2.63
2017-11-23T21:47:30.843Z,3.20
2017-11-23T21:50:03.235Z,2.90
2017-11-23T21:52:37.244Z,3.67
2017-11-23T21:55:10.419Z,2.70
2017-11-23T21:57:43.755Z,2.47
2017-11-23T22:00:17.283Z,2.10
2017-11-23T22:02:50.594Z,2.30
2017-11-23T22:05:22.990Z,2.20
2017-11-23T22:07:57.075Z,2.27
2017-11-23T22:10:29.826Z,2.23
2017-11-23T22:13:03.709Z,2.13
2017-11-23T22:15:36.600Z,1.90
2017-11-23T22:18:09.851Z,1.90
2017-11-23T22:20:43.255Z,2.03
2017-11-23T22:23:16.591Z,2.13
2017-11-23T22:25:50.028Z,3.10
2017-11-23T22:28:23.222Z,2.60
2017-11-23T22:30:56.514Z,2.60
2017-11-23T22:33:29.210Z,2.90
2017-11-23T22:36:01.910Z,2.60
2017-11-23T22:38:35.036Z,2.00
2017-11-23T22:41:07.418Z,3.20
2017-11-23T22:43:39.808Z,4.07
2017-11-23T22:46:12.981Z,2.43
2017-11-23T22:48:45.672Z,4.77
2017-11-23T22:51:19.004Z,2.73
2017-11-23T22:53:51.492Z,1.93
2017-11-23T22:56:23.898Z,2.00
2017-11-23T22:58:56.304Z,2.37
2017-11-23T23:01:36.768Z,1.80
2017-11-23T23:04:10.267Z,1.70
2017-11-23T23:06:42.862Z,1.77
2017-11-23T23:09:15.264Z,1.53
2017-11-23T23:11:48.630Z,2.07
2017-11-23T23:14:21.934Z,2.10
2017-11-23T23:16:55.294Z,2.07
2017-11-23T23:19:29.497Z,1.73
2017-11-23T23:22:01.834Z,1.40
2017-11-23T23:24:35.141Z,2.20
2017-11-23T23:27:08.367Z,1.67
2017-11-23T23:29:40.931Z,1.80
2017-11-23T23:32:14.416Z,1.83
2017-11-23T23:34:48.476Z,1.80
2017-11-23T23:37:21.200Z,1.70
2017-11-23T23:39:53.569Z,1.80
2017-11-23T23:42:26.090Z,2.10
2017-11-23T23:44:59.297Z,1.80
2017-11-23T23:47:32.097Z,1.80
2017-11-23T23:50:04.513Z,1.80
2017-11-23T23:52:36.952Z,1.80
2017-11-23T23:55:11.004Z,1.47
2017-11-23T23:57:43.975Z,2.10
